Diane — WDF2440 — position and weather

sailwx.info

Track history (hours):
 
Tides and Currents Weather Stations Pressure Air Temp Water Temp Dewpoint Dewpoint Depression Visibility Wind Speed Wind Dir Waves Ship Positions

Diane

Owner: Enterprise Marine Services, LLC, San Antonio, TX. More information available from US FCC via Universal Licensing System and Coast Guard Vessel Documentation Center.

Last reported at 2018-Jan-20 23:17 UTC. Time now 2018-Jan-24 05:51 UTC.
Position N 30°04' W 093°41'.

Length 24 m; draft 0.6 m.

Type: . MMSI: 367131150.

Date/timePositionNaut miles runAvg speedWind from/ knotsBaromVisibWave heightAir tempDewpointWater temp
2018-Jan-20 23:17N 30°04' W 093°41'2 5.6
2018-Jan-20 23:00N 30°04' W 093°39'3 5.8
2018-Jan-20 22:26N 30°04' W 093°35'2 5.5
2018-Jan-20 22:00N 30°04' W 093°33'3 5.5
2018-Jan-20 21:30N 30°04' W 093°29'3 5.4
2018-Jan-20 21:00N 30°04' W 093°26'3 5.9
2018-Jan-20 20:28N 30°04' W 093°23'2 4.1
2018-Jan-20 20:00N 30°04' W 093°20'2 4.3
2018-Jan-20 19:30N 30°06' W 093°19'0 0.0
2018-Jan-20 19:00N 30°06' W 093°19'1 2.2
2018-Jan-20 18:30N 30°05' W 093°18'3 5.4
2018-Jan-20 18:00N 30°03' W 093°16'3 5.5
2018-Jan-20 17:30N 30°01' W 093°14'3 5.9
2018-Jan-20 17:00N 29°59' W 093°12'3 6.7
2018-Jan-20 16:30N 29°56' W 093°10'44 4.6
2018-Jan-20 07:06N 29°50' W 092°20'0 1.4
2018-Jan-20 07:00N 29°50' W 092°20'1 2.0
2018-Jan-20 06:27N 29°50' W 092°18'1 2.8
2018-Jan-20 05:59N 29°49' W 092°17'3 5.4
2018-Jan-20 05:30N 29°48' W 092°15'2 4.4
2018-Jan-20 04:59N 29°47' W 092°12'1 1.7
2018-Jan-20 04:30N 29°47' W 092°11'0 0.7
2018-Jan-20 04:00N 29°47' W 092°11'1 1.0
2018-Jan-20 03:30N 29°47' W 092°10'0 0.1
2018-Jan-20 03:00N 29°47' W 092°10'1 1.3
2018-Jan-20 02:30N 29°47' W 092°10'2 4.0
2018-Jan-20 02:00N 29°47' W 092°08'69 5.8
2018-Jan-19 14:14N 29°32' W 090°51'2 7.3
2018-Jan-19 14:00N 29°32' W 090°49'3 6.0
2018-Jan-19 13:30N 29°33' W 090°45'2 4.3
2018-Jan-19 13:00N 29°34' W 090°43'2 4.7
2018-Jan-19 12:30N 29°36' W 090°43'2 4.2
2018-Jan-19 12:00N 29°36' W 090°40'3 5.7
2018-Jan-19 11:30N 29°35' W 090°37'3 5.5
2018-Jan-19 11:00N 29°34' W 090°34'  
2018-Jan-12 08:43N 29°56' W 093°07'1 4.9
2018-Jan-12 08:30N 29°56' W 093°08'2 4.2
2018-Jan-12 08:00N 29°57' W 093°10'2 4.7
2018-Jan-12 07:30N 29°59' W 093°12'2 4.8
2018-Jan-12 07:00N 30°01' W 093°14'2 4.3
2018-Jan-12 06:30N 30°02' W 093°15'2 3.8
2018-Jan-12 06:00N 30°04' W 093°16'2 3.9
2018-Jan-12 05:30N 30°05' W 093°18'1 1.2
2018-Jan-12 05:00N 30°06' W 093°18'1 1.4
2018-Jan-12 04:30N 30°06' W 093°19'0 0.3
2018-Jan-12 04:00N 30°06' W 093°19'0 0.0
2018-Jan-12 03:28N 30°06' W 093°19'0 0.0
2018-Jan-12 03:00N 30°06' W 093°19'0 0.1
2018-Jan-12 02:30N 30°06' W 093°19'0 0.6
2018-Jan-12 02:00N 30°06' W 093°19'1 1.9
2018-Jan-12 01:30N 30°05' W 093°20'0 0.2
2018-Jan-12 01:00N 30°05' W 093°20'0 0.0
2018-Jan-12 00:29N 30°05' W 093°20'0 0.0
2018-Jan-12 00:00N 30°05' W 093°20'0 0.0
2018-Jan-11 23:30N 30°05' W 093°20'1 2.4
2018-Jan-11 23:00N 30°06' W 093°19'1 1.5
2018-Jan-11 22:30N 30°06' W 093°19'0 0.2
2018-Jan-11 22:00N 30°06' W 093°19'1 2.7
2018-Jan-11 21:30N 30°07' W 093°20'3 5.4
2018-Jan-11 21:00N 30°10' W 093°20'3 5.6
2018-Jan-11 20:30N 30°12' W 093°18'2 4.7
2018-Jan-11 20:00N 30°13' W 093°15'2 3.6
2018-Jan-11 19:30N 30°15' W 093°15'1 1.5
2018-Jan-11 19:00N 30°15' W 093°14'1 1.4
2018-Jan-11 18:30N 30°15' W 093°14'1 2.2
2018-Jan-11 18:00N 30°15' W 093°12'0 0.0
2018-Jan-11 17:30N 30°15' W 093°12'0 0.0
2018-Jan-11 15:06N 30°15' W 093°12'0 0.1
2018-Jan-11 15:01N 30°15' W 093°12'0 0.0
2018-Jan-11 14:30N 30°15' W 093°12'0 0.3
2018-Jan-11 14:00N 30°15' W 093°13'1 1.9
2018-Jan-11 13:30N 30°15' W 093°13'0 0.7
2018-Jan-11 13:00N 30°15' W 093°14'2 4.4
2018-Jan-11 12:30N 30°13' W 093°15'0 0.6
2018-Jan-11 12:00N 30°13' W 093°15'1 1.3
2018-Jan-11 11:30N 30°14' W 093°15'1 3.0
2018-Jan-11 11:01N 30°15' W 093°14'0 0.0
2018-Jan-11 10:31N 30°15' W 093°14'0 0.0
2018-Jan-11 10:01N 30°15' W 093°14'0 0.0
2018-Jan-11 09:29N 30°15' W 093°14'1 1.2
2018-Jan-11 09:01N 30°15' W 093°13'1 1.1
2018-Jan-11 08:30N 30°15' W 093°13'1 1.0
2018-Jan-11 08:00N 30°15' W 093°12'0 0.0
2018-Jan-11 07:30N 30°15' W 093°12'0 0.0
2018-Jan-11 07:01N 30°15' W 093°12'0 0.0
2018-Jan-11 06:30N 30°15' W 093°12'0 0.0
2018-Jan-11 06:01N 30°15' W 093°12'0 0.0
2018-Jan-11 05:30N 30°15' W 093°12'0 0.0
2018-Jan-11 05:00N 30°15' W 093°12'0 0.0
2018-Jan-11 04:31N 30°15' W 093°12'0 0.0
2018-Jan-11 04:00N 30°15' W 093°12'1 2.8
2018-Jan-11 03:30N 30°15' W 093°14'1 1.5
2018-Jan-11 03:00N 30°14' W 093°15'1 2.8
2018-Jan-11 02:30N 30°13' W 093°16'3 6.1
2018-Jan-11 02:00N 30°11' W 093°18'3 6.7
2018-Jan-11 01:31N 30°08' W 093°20'3 6.6
2018-Jan-11 01:00N 30°05' W 093°20'0 0.4
2018-Jan-11 00:30N 30°05' W 093°20'0 0.1
2018-Jan-11 00:00N 30°05' W 093°20'1 2.0
2018-Jan-10 23:30N 30°06' W 093°19'  
Track history (hours):
 
Tides and Currents Weather Stations Pressure Air Temp Water Temp Dewpoint Dewpoint Depression Visibility Wind Speed Wind Dir Waves Ship Positions

Diane

Owner: Enterprise Marine Services, LLC, San Antonio, TX. More information available from US FCC via Universal Licensing System and Coast Guard Vessel Documentation Center.

Last reported at 2018-Jan-20 23:17 UTC. Time now 2018-Jan-24 05:51 UTC.
Position N 30°04' W 093°41'.

Length 24 m; draft 0.6 m.

Type: . MMSI: 367131150.

Date/timePositionNaut miles runAvg speedWind from/ knotsBaromVisibWave heightAir tempDewpointWater temp
2018-Jan-20 23:17N 30°04' W 093°41'2 5.6
2018-Jan-20 23:00N 30°04' W 093°39'3 5.8
2018-Jan-20 22:26N 30°04' W 093°35'2 5.5
2018-Jan-20 22:00N 30°04' W 093°33'3 5.5
2018-Jan-20 21:30N 30°04' W 093°29'3 5.4
2018-Jan-20 21:00N 30°04' W 093°26'3 5.9
2018-Jan-20 20:28N 30°04' W 093°23'2 4.1
2018-Jan-20 20:00N 30°04' W 093°20'2 4.3
2018-Jan-20 19:30N 30°06' W 093°19'0 0.0
2018-Jan-20 19:00N 30°06' W 093°19'1 2.2
2018-Jan-20 18:30N 30°05' W 093°18'3 5.4
2018-Jan-20 18:00N 30°03' W 093°16'3 5.5
2018-Jan-20 17:30N 30°01' W 093°14'3 5.9
2018-Jan-20 17:00N 29°59' W 093°12'3 6.7
2018-Jan-20 16:30N 29°56' W 093°10'44 4.6
2018-Jan-20 07:06N 29°50' W 092°20'0 1.4
2018-Jan-20 07:00N 29°50' W 092°20'1 2.0
2018-Jan-20 06:27N 29°50' W 092°18'1 2.8
2018-Jan-20 05:59N 29°49' W 092°17'3 5.4
2018-Jan-20 05:30N 29°48' W 092°15'2 4.4
2018-Jan-20 04:59N 29°47' W 092°12'1 1.7
2018-Jan-20 04:30N 29°47' W 092°11'0 0.7
2018-Jan-20 04:00N 29°47' W 092°11'1 1.0
2018-Jan-20 03:30N 29°47' W 092°10'0 0.1
2018-Jan-20 03:00N 29°47' W 092°10'1 1.3
2018-Jan-20 02:30N 29°47' W 092°10'2 4.0
2018-Jan-20 02:00N 29°47' W 092°08'69 5.8
2018-Jan-19 14:14N 29°32' W 090°51'2 7.3
2018-Jan-19 14:00N 29°32' W 090°49'3 6.0
2018-Jan-19 13:30N 29°33' W 090°45'2 4.3
2018-Jan-19 13:00N 29°34' W 090°43'2 4.7
2018-Jan-19 12:30N 29°36' W 090°43'2 4.2
2018-Jan-19 12:00N 29°36' W 090°40'3 5.7
2018-Jan-19 11:30N 29°35' W 090°37'3 5.5
2018-Jan-19 11:00N 29°34' W 090°34'  
2018-Jan-12 08:43N 29°56' W 093°07'1 4.9
2018-Jan-12 08:30N 29°56' W 093°08'2 4.2
2018-Jan-12 08:00N 29°57' W 093°10'2 4.7
2018-Jan-12 07:30N 29°59' W 093°12'2 4.8
2018-Jan-12 07:00N 30°01' W 093°14'2 4.3
2018-Jan-12 06:30N 30°02' W 093°15'2 3.8
2018-Jan-12 06:00N 30°04' W 093°16'2 3.9
2018-Jan-12 05:30N 30°05' W 093°18'1 1.2
2018-Jan-12 05:00N 30°06' W 093°18'1 1.4
2018-Jan-12 04:30N 30°06' W 093°19'0 0.3
2018-Jan-12 04:00N 30°06' W 093°19'0 0.0
2018-Jan-12 03:28N 30°06' W 093°19'0 0.0
2018-Jan-12 03:00N 30°06' W 093°19'0 0.1
2018-Jan-12 02:30N 30°06' W 093°19'0 0.6
2018-Jan-12 02:00N 30°06' W 093°19'1 1.9
2018-Jan-12 01:30N 30°05' W 093°20'0 0.2
2018-Jan-12 01:00N 30°05' W 093°20'0 0.0
2018-Jan-12 00:29N 30°05' W 093°20'0 0.0
2018-Jan-12 00:00N 30°05' W 093°20'0 0.0
2018-Jan-11 23:30N 30°05' W 093°20'1 2.4
2018-Jan-11 23:00N 30°06' W 093°19'1 1.5
2018-Jan-11 22:30N 30°06' W 093°19'0 0.2
2018-Jan-11 22:00N 30°06' W 093°19'1 2.7
2018-Jan-11 21:30N 30°07' W 093°20'3 5.4
2018-Jan-11 21:00N 30°10' W 093°20'3 5.6
2018-Jan-11 20:30N 30°12' W 093°18'2 4.7
2018-Jan-11 20:00N 30°13' W 093°15'2 3.6
2018-Jan-11 19:30N 30°15' W 093°15'1 1.5
2018-Jan-11 19:00N 30°15' W 093°14'1 1.4
2018-Jan-11 18:30N 30°15' W 093°14'1 2.2
2018-Jan-11 18:00N 30°15' W 093°12'0 0.0
2018-Jan-11 17:30N 30°15' W 093°12'0 0.0
2018-Jan-11 15:06N 30°15' W 093°12'0 0.1
2018-Jan-11 15:01N 30°15' W 093°12'0 0.0
2018-Jan-11 14:30N 30°15' W 093°12'0 0.3
2018-Jan-11 14:00N 30°15' W 093°13'1 1.9
2018-Jan-11 13:30N 30°15' W 093°13'0 0.7
2018-Jan-11 13:00N 30°15' W 093°14'2 4.4
2018-Jan-11 12:30N 30°13' W 093°15'0 0.6
2018-Jan-11 12:00N 30°13' W 093°15'1 1.3
2018-Jan-11 11:30N 30°14' W 093°15'1 3.0
2018-Jan-11 11:01N 30°15' W 093°14'0 0.0
2018-Jan-11 10:31N 30°15' W 093°14'0 0.0
2018-Jan-11 10:01N 30°15' W 093°14'0 0.0
2018-Jan-11 09:29N 30°15' W 093°14'1 1.2
2018-Jan-11 09:01N 30°15' W 093°13'1 1.1
2018-Jan-11 08:30N 30°15' W 093°13'1 1.0
2018-Jan-11 08:00N 30°15' W 093°12'0 0.0
2018-Jan-11 07:30N 30°15' W 093°12'0 0.0
2018-Jan-11 07:01N 30°15' W 093°12'0 0.0
2018-Jan-11 06:30N 30°15' W 093°12'0 0.0
2018-Jan-11 06:01N 30°15' W 093°12'0 0.0
2018-Jan-11 05:30N 30°15' W 093°12'0 0.0
2018-Jan-11 05:00N 30°15' W 093°12'0 0.0
2018-Jan-11 04:31N 30°15' W 093°12'0 0.0
2018-Jan-11 04:00N 30°15' W 093°12'1 2.8
2018-Jan-11 03:30N 30°15' W 093°14'1 1.5
2018-Jan-11 03:00N 30°14' W 093°15'1 2.8
2018-Jan-11 02:30N 30°13' W 093°16'3 6.1
2018-Jan-11 02:00N 30°11' W 093°18'3 6.7
2018-Jan-11 01:31N 30°08' W 093°20'3 6.6
2018-Jan-11 01:00N 30°05' W 093°20'0 0.4
2018-Jan-11 00:30N 30°05' W 093°20'0 0.1
2018-Jan-11 00:00N 30°05' W 093°20'1 2.0
2018-Jan-10 23:30N 30°06' W 093°19'  

Dump ship's entire track history